createdAt,value
2022-09-12T00:02:04.717Z,6.47
2022-09-12T00:04:31.879Z,8.25
2022-09-12T00:06:59.013Z,4.68
2022-09-12T00:09:26.165Z,6.00
2022-09-12T00:11:53.353Z,5.25
2022-09-12T00:14:20.588Z,6.72
2022-09-12T00:16:47.894Z,7.70
2022-09-12T00:19:15.418Z,7.93
2022-09-12T00:21:42.880Z,5.22
2022-09-12T00:24:11.230Z,7.82
2022-09-12T00:26:38.415Z,5.53
2022-09-12T00:29:05.777Z,6.70
2022-09-12T00:31:33.088Z,7.57
2022-09-12T00:34:04.119Z,4.85
2022-09-12T00:36:31.631Z,6.68
2022-09-12T00:38:59.412Z,6.20
2022-09-12T00:41:32.671Z,12.18
2022-09-12T00:44:21.522Z,6.57
2022-09-12T00:47:01.072Z,4.78
2022-09-12T00:49:33.962Z,5.73
2022-09-12T00:52:07.161Z,6.47
2022-09-12T00:54:58.560Z,8.30
2022-09-12T00:57:31.541Z,6.65
2022-09-12T01:00:14.382Z,8.75
2022-09-12T01:02:49.426Z,9.52
2022-09-12T01:05:17.210Z,7.38
2022-09-12T01:07:48.734Z,7.20
2022-09-12T01:10:16.784Z,8.20
2022-09-12T01:12:44.704Z,8.75
2022-09-12T01:15:12.141Z,9.95
2022-09-12T01:17:54.675Z,5.70
2022-09-12T01:20:33.502Z,12.60
2022-09-12T01:23:19.835Z,7.63
2022-09-12T01:26:24.499Z,10.15
2022-09-12T01:29:06.837Z,6.80
2022-09-12T01:31:44.625Z,7.82
2022-09-12T01:34:26.613Z,12.98
2022-09-12T01:36:56.745Z,6.55
2022-09-12T01:39:32.829Z,6.13
2022-09-12T01:42:07.023Z,7.32
2022-09-12T01:45:07.476Z,6.75
2022-09-12T01:47:50.234Z,7.95
2022-09-12T01:50:26.081Z,8.02
2022-09-12T01:53:09.265Z,7.28
2022-09-12T01:55:36.368Z,6.68
2022-09-12T01:58:11.980Z,8.75
2022-09-12T02:00:48.557Z,7.70
2022-09-12T02:03:20.492Z,8.00
2022-09-12T02:05:54.083Z,6.50
2022-09-12T02:08:28.894Z,11.70
2022-09-12T02:11:09.588Z,10.68
2022-09-12T02:13:50.088Z,10.35
2022-09-12T02:16:26.674Z,9.00
2022-09-12T02:18:58.240Z,7.60
2022-09-12T02:21:27.602Z,8.13
2022-09-12T02:24:01.615Z,7.05
2022-09-12T02:26:52.533Z,8.07
2022-09-12T02:29:19.579Z,8.82
2022-09-12T02:32:00.776Z,13.27
2022-09-12T02:34:34.988Z,7.32
2022-09-12T02:37:15.621Z,9.05
2022-09-12T02:39:45.357Z,8.20
2022-09-12T02:42:13.941Z,7.10
2022-09-12T02:44:41.971Z,8.10
2022-09-12T02:47:23.812Z,7.70
2022-09-12T02:49:51.819Z,7.47
2022-09-12T02:52:19.729Z,7.90
2022-09-12T02:54:48.092Z,6.97
2022-09-12T02:57:22.820Z,5.55
2022-09-12T02:59:54.419Z,8.20
2022-09-12T03:02:39.979Z,7.57
2022-09-12T03:05:19.106Z,9.43
2022-09-12T03:08:04.459Z,10.68
2022-09-12T03:10:50.070Z,8.43
2022-09-12T03:13:19.878Z,9.30
2022-09-12T03:16:31.863Z,9.50
2022-09-12T03:19:09.934Z,8.32
2022-09-12T03:21:57.012Z,8.45
2022-09-12T03:24:43.413Z,8.38
2022-09-12T03:27:16.625Z,9.75
2022-09-12T03:29:46.460Z,10.68
2022-09-12T03:32:14.219Z,8.15
2022-09-12T03:34:41.579Z,8.52
2022-09-12T03:37:08.663Z,9.20
2022-09-12T03:39:35.702Z,9.73
2022-09-12T03:42:02.831Z,8.95
2022-09-12T03:44:30.146Z,7.75
2022-09-12T03:46:57.434Z,8.40
2022-09-12T03:49:24.597Z,8.68
2022-09-12T03:51:51.658Z,9.02
2022-09-12T03:54:18.818Z,9.48
2022-09-12T03:56:45.919Z,9.70
2022-09-12T03:59:13.301Z,12.15
2022-09-12T04:01:42.039Z,7.75
2022-09-12T04:04:09.658Z,9.65
2022-09-12T04:06:36.699Z,7.97
2022-09-12T04:09:04.179Z,8.20
2022-09-12T04:11:32.469Z,8.88
2022-09-12T04:14:00.049Z,9.23
2022-09-12T04:16:27.580Z,9.10
2022-09-12T04:18:54.790Z,8.23
2022-09-12T04:21:22.429Z,10.98
2022-09-12T04:23:49.734Z,10.35
2022-09-12T04:26:18.793Z,7.68
2022-09-12T04:28:46.882Z,8.32
2022-09-12T04:31:22.805Z,7.65
2022-09-12T04:33:58.313Z,7.53
2022-09-12T04:36:26.579Z,8.15
2022-09-12T04:38:54.134Z,12.80
2022-09-12T04:41:26.548Z,10.90
2022-09-12T04:43:56.212Z,8.77
2022-09-12T04:46:23.267Z,9.75
2022-09-12T04:48:55.936Z,8.35
2022-09-12T04:51:29.259Z,11.50
2022-09-12T04:53:59.686Z,10.82
2022-09-12T04:58:56.821Z,10.13
2022-09-12T05:01:24.098Z,9.70
2022-09-12T05:03:52.105Z,16.70
2022-09-12T05:06:23.104Z,10.07
2022-09-12T05:08:51.382Z,9.07
2022-09-12T05:11:26.552Z,9.77
2022-09-12T05:13:55.589Z,7.00
2022-09-12T05:16:24.046Z,10.38
2022-09-12T05:18:51.335Z,7.63
2022-09-12T05:21:21.306Z,8.85
2022-09-12T05:23:55.149Z,8.80
2022-09-12T05:26:23.550Z,8.63
2022-09-12T05:28:51.972Z,8.77
2022-09-12T05:31:24.560Z,8.82
2022-09-12T05:33:53.579Z,7.70
2022-09-12T05:36:24.239Z,11.20
2022-09-12T05:38:51.739Z,7.10
2022-09-12T05:41:25.242Z,7.82
2022-09-12T05:43:54.904Z,8.55
2022-09-12T05:46:24.443Z,8.95
2022-09-12T05:48:56.126Z,9.38
2022-09-12T05:51:26.941Z,7.43
2022-09-12T05:53:57.866Z,14.30
2022-09-12T05:56:27.573Z,8.02
2022-09-12T05:59:00.779Z,17.30
2022-09-12T06:01:29.363Z,11.07
2022-09-12T06:03:59.297Z,9.40
2022-09-12T06:06:28.111Z,19.48
2022-09-12T06:08:58.919Z,9.85
2022-09-12T06:11:29.107Z,10.60
2022-09-12T06:13:57.983Z,13.63
2022-09-12T06:16:27.771Z,6.38
2022-09-12T06:19:04.840Z,15.10
2022-09-12T06:21:32.188Z,6.93
2022-09-12T06:23:59.462Z,10.73
2022-09-12T06:26:29.420Z,8.68
2022-09-12T06:28:59.682Z,6.75
2022-09-12T06:31:33.685Z,7.40
2022-09-12T06:34:04.429Z,6.82
2022-09-12T06:36:37.779Z,6.90
2022-09-12T06:39:13.535Z,7.03
2022-09-12T06:41:43.944Z,9.05
2022-09-12T06:44:19.462Z,8.88
2022-09-12T06:46:47.343Z,7.90
2022-09-12T06:49:14.834Z,7.63
2022-09-12T06:51:44.954Z,7.57
2022-09-12T06:54:17.408Z,5.32
2022-09-12T06:56:45.081Z,6.78
2022-09-12T06:59:12.750Z,5.18
2022-09-12T07:01:41.459Z,4.60
2022-09-12T07:04:08.855Z,5.68
2022-09-12T07:06:41.953Z,7.57
2022-09-12T07:09:14.261Z,7.10
2022-09-12T07:11:42.682Z,6.88
2022-09-12T07:14:14.192Z,7.38
2022-09-12T07:16:42.072Z,5.65
2022-09-12T07:19:09.996Z,5.60
2022-09-12T07:21:40.506Z,8.07
2022-09-12T07:24:10.017Z,5.22
2022-09-12T07:26:38.019Z,5.53
2022-09-12T07:29:32.325Z,6.88
2022-09-12T07:31:52.775Z,5.47
2022-09-12T07:34:19.918Z,5.53
2022-09-12T07:36:47.053Z,4.65
2022-09-12T07:39:14.260Z,5.93
2022-09-12T07:41:41.724Z,3.88
2022-09-12T07:44:09.001Z,4.18
2022-09-12T07:46:36.127Z,8.52
2022-09-12T07:49:03.310Z,3.95
2022-09-12T07:51:31.070Z,3.38
2022-09-12T07:53:58.662Z,3.83
2022-09-12T07:56:30.128Z,6.25
2022-09-12T07:58:57.844Z,3.55
2022-09-12T08:01:25.194Z,6.63
2022-09-12T08:03:57.940Z,5.45
2022-09-12T08:06:26.760Z,5.50
2022-09-12T08:08:56.518Z,5.18
2022-09-12T08:11:25.629Z,4.15
2022-09-12T08:13:56.250Z,3.22
2022-09-12T08:16:29.892Z,5.45
2022-09-12T08:18:57.424Z,5.30
2022-09-12T08:21:26.871Z,4.20
2022-09-12T08:23:56.629Z,3.13
2022-09-12T08:26:25.022Z,5.38
2022-09-12T08:28:53.431Z,5.82
2022-09-12T08:31:24.135Z,6.25
2022-09-12T08:33:52.140Z,3.95
2022-09-12T08:36:23.293Z,4.20
2022-09-12T08:38:59.233Z,4.35
2022-09-12T08:41:32.469Z,3.15
2022-09-12T08:44:05.583Z,4.88
2022-09-12T08:46:41.293Z,3.55
2022-09-12T08:49:15.814Z,4.28
2022-09-12T08:51:43.440Z,4.30
2022-09-12T08:54:24.450Z,4.18
2022-09-12T08:56:53.669Z,3.78
2022-09-12T08:59:21.262Z,4.60
2022-09-12T09:01:55.475Z,4.60
2022-09-12T09:04:26.860Z,6.78
2022-09-12T09:07:14.991Z,4.18
2022-09-12T09:09:51.133Z,3.63
2022-09-12T09:12:45.490Z,3.50
2022-09-12T09:15:24.044Z,2.33
2022-09-12T09:18:00.860Z,4.30
2022-09-12T09:20:31.676Z,4.45
2022-09-12T09:23:05.799Z,3.78
2022-09-12T09:25:51.140Z,4.20
2022-09-12T09:28:23.988Z,3.15
2022-09-12T09:30:51.615Z,4.32
2022-09-12T09:33:23.273Z,5.03
2022-09-12T09:36:09.270Z,3.97
2022-09-12T09:39:04.425Z,3.97
2022-09-12T09:41:42.502Z,4.15
2022-09-12T09:44:10.714Z,6.45
2022-09-12T09:46:37.929Z,3.38
2022-09-12T09:49:07.509Z,4.63
2022-09-12T09:51:39.021Z,2.83
2022-09-12T09:54:28.349Z,3.60
2022-09-12T09:56:56.632Z,3.33
2022-09-12T09:59:32.023Z,7.10
2022-09-12T10:02:03.586Z,6.80
2022-09-12T10:04:39.237Z,3.88
2022-09-12T10:07:19.020Z,3.10
2022-09-12T10:10:16.007Z,4.38
2022-09-12T10:12:43.804Z,4.70
2022-09-12T10:15:24.139Z,3.28
2022-09-12T10:20:33.223Z,3.40
2022-09-12T10:23:02.902Z,2.45
2022-09-12T10:25:30.395Z,2.83
2022-09-12T10:28:00.738Z,4.15
2022-09-12T10:33:12.515Z,5.53
2022-09-12T10:35:46.457Z,4.63
2022-09-12T10:38:21.662Z,6.72
2022-09-12T10:40:59.121Z,3.85
2022-09-12T10:43:37.655Z,3.90
2022-09-12T10:46:16.931Z,3.15
2022-09-12T10:48:48.465Z,2.75
2022-09-12T10:51:29.986Z,2.58
2022-09-12T10:54:05.083Z,5.00
2022-09-12T10:56:52.672Z,2.15
2022-09-12T10:59:34.708Z,5.38
2022-09-12T11:02:15.233Z,3.72
2022-09-12T11:04:56.458Z,2.80
2022-09-12T11:07:42.345Z,3.67
2022-09-12T11:10:52.071Z,2.25
2022-09-12T11:13:27.392Z,3.45
2022-09-12T11:16:20.161Z,4.43
2022-09-12T11:18:58.582Z,2.65
2022-09-12T11:21:45.378Z,4.38
2022-09-12T11:24:21.629Z,3.88
2022-09-12T11:26:57.754Z,2.65
2022-09-12T11:29:35.533Z,3.55
2022-09-12T11:32:08.624Z,4.07
2022-09-12T11:34:54.110Z,2.90
2022-09-12T11:37:40.222Z,3.42
2022-09-12T11:40:18.581Z,3.25
2022-09-12T11:42:48.338Z,2.85
2022-09-12T11:45:43.360Z,4.35
2022-09-12T11:48:32.546Z,3.83
2022-09-12T11:51:03.299Z,2.15
2022-09-12T11:53:36.952Z,2.70
2022-09-12T11:56:18.942Z,3.78
2022-09-12T11:58:59.953Z,3.15
2022-09-12T12:01:41.293Z,2.28
2022-09-12T12:04:15.978Z,2.50
2022-09-12T12:07:06.226Z,3.85
2022-09-12T12:09:34.572Z,4.43
2022-09-12T12:12:09.743Z,3.92
2022-09-12T12:14:47.209Z,2.58
2022-09-12T12:17:25.644Z,3.80
2022-09-12T12:20:08.427Z,2.90
2022-09-12T12:22:36.351Z,2.22
2022-09-12T12:25:12.421Z,2.53
2022-09-12T12:27:56.188Z,3.50
2022-09-12T12:30:32.310Z,3.33
2022-09-12T12:33:13.460Z,2.60
2022-09-12T12:35:47.106Z,3.10
2022-09-12T12:38:31.900Z,3.15
2022-09-12T12:41:17.529Z,2.20
2022-09-12T12:43:48.700Z,2.58
2022-09-12T12:46:21.098Z,2.42
2022-09-12T12:49:20.254Z,3.53
2022-09-12T12:52:01.812Z,2.10
2022-09-12T12:54:40.413Z,4.70
2022-09-12T12:57:13.579Z,2.90
2022-09-12T13:00:05.380Z,3.03
2022-09-12T13:02:42.009Z,1.92
2022-09-12T13:05:22.465Z,2.70
2022-09-12T13:07:56.536Z,2.13
2022-09-12T13:10:29.032Z,3.22
2022-09-12T13:13:00.079Z,2.72
2022-09-12T13:15:36.482Z,2.00
2022-09-12T13:18:11.580Z,2.10
2022-09-12T13:20:48.477Z,3.00
2022-09-12T13:23:28.063Z,1.98
2022-09-12T13:25:57.598Z,1.90
2022-09-12T13:28:26.670Z,3.83
2022-09-12T13:31:18.349Z,2.50
2022-09-12T13:33:56.278Z,2.03
2022-09-12T13:36:35.673Z,1.83
2022-09-12T13:39:12.069Z,4.38
2022-09-12T13:41:39.280Z,2.83
2022-09-12T13:44:11.822Z,2.42
2022-09-12T13:46:39.816Z,2.88
2022-09-12T13:49:21.183Z,2.60
2022-09-12T13:52:03.742Z,3.95
2022-09-12T13:54:33.053Z,2.85
2022-09-12T13:57:00.626Z,2.67
2022-09-12T13:59:28.106Z,1.65
2022-09-12T14:01:55.575Z,2.25
2022-09-12T14:04:43.939Z,3.67
2022-09-12T14:07:23.176Z,2.17
2022-09-12T14:09:59.259Z,3.28
2022-09-12T14:12:32.784Z,2.78
2022-09-12T14:14:59.949Z,2.50
2022-09-12T14:17:39.568Z,2.70
2022-09-12T14:20:14.463Z,5.70
2022-09-12T14:22:41.973Z,2.42
2022-09-12T14:25:16.732Z,2.42
2022-09-12T14:27:55.901Z,2.42
2022-09-12T14:30:27.224Z,4.35
2022-09-12T14:33:12.591Z,4.53
2022-09-12T14:36:21.469Z,2.55
2022-09-12T14:38:52.699Z,3.15
2022-09-12T14:41:31.586Z,4.50
2022-09-12T14:44:10.701Z,2.53
2022-09-12T14:46:39.567Z,2.95
2022-09-12T14:49:12.434Z,4.07
2022-09-12T14:51:47.132Z,1.63
2022-09-12T14:54:28.831Z,3.25
2022-09-12T14:56:57.324Z,2.75
2022-09-12T14:59:35.227Z,2.58
2022-09-12T15:02:17.477Z,2.17
2022-09-12T15:04:49.899Z,3.20
2022-09-12T15:07:34.063Z,2.45
2022-09-12T15:10:37.972Z,2.50
2022-09-12T15:13:16.867Z,5.20
2022-09-12T15:15:52.027Z,5.18
2022-09-12T15:18:20.664Z,2.83
2022-09-12T15:20:50.859Z,2.47
2022-09-12T15:23:25.387Z,2.20
2022-09-12T15:25:52.739Z,2.85
2022-09-12T15:28:22.094Z,1.80
2022-09-12T15:30:51.533Z,1.98
2022-09-12T15:33:20.662Z,3.27
2022-09-12T15:35:47.910Z,2.63
2022-09-12T15:38:15.228Z,4.03
2022-09-12T15:40:42.514Z,4.95
2022-09-12T15:43:13.177Z,3.17
2022-09-12T15:45:43.856Z,2.20
2022-09-12T15:48:11.079Z,1.90
2022-09-12T15:50:38.242Z,2.85
2022-09-12T15:53:05.299Z,2.17
2022-09-12T15:55:33.228Z,3.08
2022-09-12T15:58:04.874Z,2.25
2022-09-12T16:00:34.152Z,2.10
2022-09-12T16:03:01.461Z,2.88
2022-09-12T16:05:29.781Z,3.58
2022-09-12T16:07:56.953Z,1.98
2022-09-12T16:10:28.018Z,4.57
2022-09-12T16:12:55.540Z,3.65
2022-09-12T16:15:25.311Z,3.25
2022-09-12T16:17:53.292Z,3.30
2022-09-12T16:20:21.381Z,3.95
2022-09-12T16:22:49.262Z,2.28
2022-09-12T16:25:17.606Z,2.92
2022-09-12T16:27:45.060Z,4.80
2022-09-12T16:30:13.484Z,1.98
2022-09-12T16:32:40.914Z,5.95
2022-09-12T16:35:08.748Z,2.72
2022-09-12T16:37:36.385Z,2.80
2022-09-12T16:40:05.229Z,3.60
2022-09-12T16:42:32.722Z,4.88
2022-09-12T16:45:00.023Z,3.05
2022-09-12T16:47:27.471Z,5.72
2022-09-12T16:49:54.710Z,2.97
2022-09-12T16:52:21.932Z,3.25
2022-09-12T16:54:49.023Z,3.42
2022-09-12T16:57:16.296Z,4.60
2022-09-12T16:59:43.461Z,5.00
2022-09-12T17:02:12.877Z,3.38
2022-09-12T17:04:40.583Z,3.92
2022-09-12T17:07:08.693Z,4.70
2022-09-12T17:09:35.866Z,4.75
2022-09-12T17:12:03.263Z,3.80
2022-09-12T17:14:30.858Z,7.10
2022-09-12T17:16:57.938Z,6.57
2022-09-12T17:19:28.353Z,6.63
2022-09-12T17:24:23.292Z,6.43
2022-09-12T17:26:51.830Z,7.68
2022-09-12T17:29:19.189Z,10.93
2022-09-12T17:31:46.829Z,7.05
2022-09-12T17:34:14.825Z,8.02
2022-09-12T17:36:44.662Z,7.55
2022-09-12T17:39:13.954Z,8.60
2022-09-12T17:41:46.307Z,6.80
2022-09-12T17:44:15.418Z,5.95
2022-09-12T17:46:42.969Z,5.90
2022-09-12T17:49:15.705Z,5.20
2022-09-12T17:51:44.200Z,7.15
2022-09-12T17:54:16.009Z,6.18
2022-09-12T17:56:44.463Z,8.73
2022-09-12T17:59:15.744Z,6.28
2022-09-12T18:02:01.721Z,5.07
2022-09-12T18:04:29.051Z,6.53
2022-09-12T18:06:57.816Z,6.88
2022-09-12T18:09:28.346Z,5.82
2022-09-12T18:11:55.980Z,7.35
2022-09-12T18:14:24.001Z,7.82
2022-09-12T18:16:52.366Z,8.50
2022-09-12T18:19:19.656Z,6.07
2022-09-12T18:21:47.003Z,6.60
2022-09-12T18:24:14.907Z,6.07
2022-09-12T18:26:43.906Z,4.75
2022-09-12T18:29:12.562Z,6.97
2022-09-12T18:31:39.899Z,4.97
2022-09-12T18:34:12.750Z,4.32
2022-09-12T18:36:41.623Z,4.18
2022-09-12T18:39:08.744Z,6.80
2022-09-12T18:41:36.496Z,6.60
2022-09-12T18:44:05.226Z,3.92
2022-09-12T18:46:34.450Z,3.70
2022-09-12T18:49:02.243Z,6.07
2022-09-12T18:51:33.060Z,4.78
2022-09-12T18:54:03.294Z,8.48
2022-09-12T18:56:35.424Z,9.38
2022-09-12T18:59:03.778Z,7.75
2022-09-12T19:01:33.807Z,8.48
2022-09-12T19:04:04.875Z,10.00
2022-09-12T19:06:35.231Z,11.18
2022-09-12T19:11:36.910Z,11.77
2022-09-12T19:14:04.243Z,14.32
2022-09-12T19:16:31.694Z,12.25
2022-09-12T19:19:00.066Z,11.65
2022-09-12T19:21:30.619Z,11.93
2022-09-12T19:24:00.826Z,12.38
2022-09-12T19:26:28.378Z,11.55
2022-09-12T19:28:55.662Z,10.48
2022-09-12T19:31:23.588Z,10.07
2022-09-12T19:33:52.396Z,10.18
2022-09-12T19:36:43.866Z,8.98
2022-09-12T19:39:09.032Z,10.18
2022-09-12T19:41:37.186Z,8.38
2022-09-12T19:44:05.195Z,9.75
2022-09-12T19:46:32.896Z,8.32
2022-09-12T19:49:00.357Z,6.95
2022-09-12T19:51:27.675Z,9.20
2022-09-12T19:53:54.898Z,8.40
2022-09-12T19:56:22.149Z,10.02
2022-09-12T19:58:55.749Z,11.07
2022-09-12T20:01:28.607Z,8.88
2022-09-12T20:03:59.444Z,10.10
2022-09-12T20:06:27.619Z,9.23
2022-09-12T20:08:55.855Z,8.00
2022-09-12T20:11:24.152Z,12.35
2022-09-12T20:13:52.196Z,7.35
2022-09-12T20:16:25.795Z,8.00
2022-09-12T20:19:01.613Z,7.13
2022-09-12T20:21:34.426Z,6.45
2022-09-12T20:24:13.143Z,7.03
2022-09-12T20:26:40.954Z,6.70
2022-09-12T20:29:09.511Z,8.45
2022-09-12T20:31:38.802Z,7.13
2022-09-12T20:34:07.168Z,5.57
2022-09-12T20:36:34.623Z,8.68
2022-09-12T20:39:02.713Z,6.95
2022-09-12T20:41:32.340Z,7.55
2022-09-12T20:43:59.681Z,9.65
2022-09-12T20:46:28.527Z,10.45
2022-09-12T20:48:56.432Z,9.05
2022-09-12T20:51:26.833Z,10.32
2022-09-12T20:53:58.945Z,10.05
2022-09-12T20:56:28.603Z,10.23
2022-09-12T20:58:56.221Z,8.93
2022-09-12T21:01:24.166Z,11.38
2022-09-12T21:03:52.144Z,12.25
2022-09-12T21:06:19.887Z,10.60
2022-09-12T21:08:48.445Z,10.52
2022-09-12T21:11:16.461Z,9.77
2022-09-12T21:13:43.753Z,11.43
2022-09-12T21:16:16.241Z,12.15
2022-09-12T21:18:43.717Z,9.82
2022-09-12T21:21:15.194Z,13.25
2022-09-12T21:23:42.926Z,8.68
2022-09-12T21:26:10.702Z,10.77
2022-09-12T21:28:37.859Z,11.38
2022-09-12T21:31:05.246Z,12.23
2022-09-12T21:33:32.620Z,11.07
2022-09-12T21:36:07.101Z,10.25
2022-09-12T21:38:34.971Z,8.18
2022-09-12T21:41:07.290Z,9.88
2022-09-12T21:43:34.674Z,10.48
2022-09-12T21:46:02.290Z,8.85
2022-09-12T21:48:30.011Z,9.45
2022-09-12T21:50:57.542Z,12.57
2022-09-12T21:53:25.016Z,9.18
2022-09-12T21:55:52.542Z,9.10
2022-09-12T21:58:19.943Z,8.85
2022-09-12T22:00:47.400Z,12.48
2022-09-12T22:03:15.639Z,11.68
2022-09-12T22:05:43.381Z,11.13
2022-09-12T22:08:11.048Z,8.90
2022-09-12T22:10:38.749Z,8.43
2022-09-12T22:13:05.967Z,9.10
2022-09-12T22:15:41.227Z,7.35
2022-09-12T22:18:08.631Z,6.93
2022-09-12T22:20:35.677Z,6.25
2022-09-12T22:23:24.781Z,8.25
2022-09-12T22:25:56.134Z,7.00
2022-09-12T22:28:23.409Z,10.07
2022-09-12T22:30:50.918Z,10.23
2022-09-12T22:33:18.157Z,10.77
2022-09-12T22:35:45.136Z,10.05
2022-09-12T22:38:12.326Z,8.13
2022-09-12T22:40:39.371Z,7.95
2022-09-12T22:43:06.382Z,9.10
2022-09-12T22:45:33.387Z,6.15
2022-09-12T22:48:00.988Z,6.80
2022-09-12T22:50:28.793Z,9.25
2022-09-12T22:52:55.986Z,7.65
2022-09-12T22:55:23.189Z,8.35
2022-09-12T22:57:50.246Z,6.45
2022-09-12T23:00:18.551Z,7.03
2022-09-12T23:02:46.421Z,8.05
2022-09-12T23:05:13.447Z,7.97
2022-09-12T23:07:40.482Z,6.15
2022-09-12T23:10:08.233Z,9.90
2022-09-12T23:12:35.310Z,9.73
2022-09-12T23:15:02.346Z,9.45
2022-09-12T23:17:29.465Z,9.93
2022-09-12T23:19:56.576Z,11.88
2022-09-12T23:22:23.587Z,10.23
2022-09-12T23:24:50.714Z,14.65
2022-09-12T23:27:17.819Z,13.85
2022-09-12T23:29:44.790Z,12.02
2022-09-12T23:32:12.026Z,11.00
2022-09-12T23:34:39.272Z,10.45
2022-09-12T23:37:07.086Z,15.15
2022-09-12T23:39:34.347Z,11.93
2022-09-12T23:42:01.603Z,12.50
2022-09-12T23:44:28.765Z,10.75
2022-09-12T23:46:55.826Z,11.23
2022-09-12T23:49:22.911Z,11.88
2022-09-12T23:51:50.055Z,12.32
2022-09-12T23:54:17.112Z,11.27
2022-09-12T23:56:44.187Z,13.45
2022-09-12T23:59:11.287Z,10.82
